Time;durP1;ratioP1;P1;durP2;ratioP2;P2;SDS_P1;SDS_P2;PMS_P1;PMS_P2;Temp;Humidity;BMP_temperature;BMP_pressure;BME280_temperature;BME280_humidity;BME280_pressure;Samples;Min_cycle;Max_cycle;Signal;HPM_P1;HPM_P2
2023/03/11 00:00:22;;;;;;;12.73;7.18;;;4.40;99.90;;;;;;5018597;28;20036;-66
2023/03/11 00:02:51;;;;;;;14.23;7.82;;;4.30;99.90;;;;;;5021112;28;20072;-66
2023/03/11 00:05:20;;;;;;;10.85;7.13;;;4.20;99.90;;;;;;5016540;28;20124;-66
2023/03/11 00:07:46;;;;;;;13.65;7.15;;;4.10;99.90;;;;;;5017461;28;20033;-66
2023/03/11 00:10:18;;;;;;;10.75;7.25;;;4.10;99.90;;;;;;5010363;28;20625;-66
2023/03/11 00:12:44;;;;;;;14.10;8.07;;;4.00;99.90;;;;;;5014144;28;20482;-66
2023/03/11 00:15:10;;;;;;;13.52;7.82;;;3.90;99.90;;;;;;5015260;28;20038;-66
2023/03/11 00:17:36;;;;;;;12.30;6.72;;;3.90;99.90;;;;;;5006291;28;20489;-65
2023/03/11 00:20:04;;;;;;;11.75;7.05;;;3.80;99.90;;;;;;5012701;28;20025;-65
2023/03/11 00:22:29;;;;;;;12.63;7.85;;;3.80;99.90;;;;;;5011364;28;20091;-66
2023/03/11 00:24:55;;;;;;;14.10;8.38;;;3.70;99.90;;;;;;5017219;28;20112;-64
2023/03/11 00:27:21;;;;;;;13.93;7.88;;;3.70;99.90;;;;;;5021864;28;20041;-65
2023/03/11 00:29:47;;;;;;;13.43;7.65;;;3.70;99.90;;;;;;5017450;28;20044;-66
2023/03/11 00:32:12;;;;;;;14.57;8.68;;;3.60;99.90;;;;;;5014995;28;20041;-66
2023/03/11 00:34:38;;;;;;;11.65;7.10;;;3.60;99.90;;;;;;5014006;28;20441;-66
2023/03/11 00:37:04;;;;;;;12.15;7.65;;;3.60;99.90;;;;;;5014356;28;20405;-65
2023/03/11 00:39:29;;;;;;;11.75;7.65;;;3.60;99.90;;;;;;5012925;28;20022;-65
2023/03/11 00:41:56;;;;;;;11.38;7.30;;;3.60;99.90;;;;;;5010924;28;20029;-66
2023/03/11 00:44:22;;;;;;;10.43;6.95;;;3.60;99.90;;;;;;5014733;28;20038;-66
2023/03/11 00:46:47;;;;;;;12.07;7.82;;;3.60;99.90;;;;;;5012101;28;20135;-65
2023/03/11 00:49:13;;;;;;;11.88;7.78;;;3.60;99.90;;;;;;5010517;28;20234;-66
2023/03/11 00:51:39;;;;;;;12.43;7.38;;;3.60;99.90;;;;;;5012055;28;20034;-66
2023/03/11 00:54:05;;;;;;;10.02;7.13;;;3.60;99.90;;;;;;5018435;28;20034;-66
2023/03/11 00:56:31;;;;;;;12.35;7.25;;;3.60;99.90;;;;;;5013923;28;21792;-66
2023/03/11 00:58:57;;;;;;;10.23;6.65;;;3.50;99.90;;;;;;5011673;28;20040;-66
2023/03/11 01:01:23;;;;;;;11.07;6.68;;;3.50;99.90;;;;;;5008782;28;20026;-66
2023/03/11 01:03:49;;;;;;;8.43;5.85;;;3.50;99.90;;;;;;5012054;28;20084;-65
2023/03/11 01:06:15;;;;;;;8.75;5.68;;;3.40;99.90;;;;;;5012005;28;20107;-65
2023/03/11 01:08:41;;;;;;;9.05;5.85;;;3.30;99.90;;;;;;5011835;28;20465;-65
2023/03/11 01:11:07;;;;;;;7.78;4.85;;;3.30;99.90;;;;;;5013929;28;20092;-65
2023/03/11 01:13:34;;;;;;;6.97;4.63;;;3.30;99.90;;;;;;5013869;28;20036;-65
2023/03/11 01:16:00;;;;;;;6.50;4.35;;;3.30;99.90;;;;;;5007275;28;20125;-65
2023/03/11 01:18:26;;;;;;;4.95;3.75;;;3.30;99.90;;;;;;5015751;28;20036;-66
2023/03/11 01:20:52;;;;;;;4.93;3.30;;;3.30;99.90;;;;;;5014321;28;20026;-65
2023/03/11 01:23:19;;;;;;;3.78;2.80;;;3.30;99.90;;;;;;5010717;28;20133;-66
2023/03/11 01:25:45;;;;;;;3.42;2.42;;;3.30;99.90;;;;;;5017964;28;20061;-66
2023/03/11 01:28:11;;;;;;;2.83;2.05;;;3.20;99.90;;;;;;5010094;28;20172;-65
2023/03/11 01:30:39;;;;;;;2.65;1.88;;;3.20;99.90;;;;;;5011055;28;20037;-65
2023/03/11 01:33:06;;;;;;;1.92;1.65;;;3.10;99.90;;;;;;5001970;28;20085;-65
2023/03/11 01:35:32;;;;;;;2.30;1.58;;;3.10;99.90;;;;;;5013225;28;20050;-65
2023/03/11 01:37:58;;;;;;;1.77;1.40;;;3.00;99.90;;;;;;5013133;28;20113;-65
2023/03/11 01:40:39;;;;;;;1.83;1.40;;;3.00;99.90;;;;;;5005858;28;20029;-65
2023/03/11 01:43:47;;;;;;;1.95;1.52;;;3.00;99.90;;;;;;5010720;28;20037;-65
2023/03/11 01:46:32;;;;;;;1.42;1.23;;;3.00;99.90;;;;;;5009859;28;20138;-65
2023/03/11 01:49:00;;;;;;;2.15;1.30;;;3.00;99.90;;;;;;5011846;28;20026;-65
2023/03/11 01:51:38;;;;;;;4.70;1.27;;;3.00;99.90;;;;;;5009181;28;20060;-65
2023/03/11 01:54:13;;;;;;;1.38;1.20;;;2.90;99.90;;;;;;5009928;28;20421;-66
2023/03/11 01:56:41;;;;;;;1.40;1.30;;;2.90;99.90;;;;;;5010945;28;20213;-65
2023/03/11 01:59:10;;;;;;;2.22;1.50;;;2.80;99.90;;;;;;5010635;28;20140;-65
2023/03/11 02:01:48;;;;;;;1.83;1.73;;;2.90;99.90;;;;;;5007176;28;20979;-65
2023/03/11 02:04:15;;;;;;;2.75;2.20;;;3.00;99.90;;;;;;5012889;28;20556;-66
2023/03/11 02:06:41;;;;;;;2.42;1.90;;;3.00;99.90;;;;;;5011277;28;20033;-65
2023/03/11 02:09:07;;;;;;;2.28;1.75;;;2.90;99.90;;;;;;5022760;28;20029;-66
2023/03/11 02:11:34;;;;;;;2.92;2.35;;;2.90;99.90;;;;;;5022144;28;20041;-65
2023/03/11 02:14:05;;;;;;;3.15;2.50;;;2.90;99.90;;;;;;5015927;28;20549;-65
2023/03/11 02:16:31;;;;;;;3.08;2.38;;;2.80;99.90;;;;;;5009843;28;20038;-66
2023/03/11 02:19:02;;;;;;;4.10;2.67;;;2.80;99.90;;;;;;5009809;28;20080;-65
2023/03/11 02:21:31;;;;;;;3.95;2.95;;;2.80;99.90;;;;;;5015330;28;20137;-65
2023/03/11 02:24:21;;;;;;;5.35;3.08;;;2.80;99.90;;;;;;5011876;28;20083;-65
2023/03/11 02:26:57;;;;;;;4.47;2.85;;;2.80;99.90;;;;;;5010159;28;20453;-65
2023/03/11 02:29:26;;;;;;;4.78;2.60;;;2.90;99.90;;;;;;5009922;28;20022;-65
2023/03/11 02:31:54;;;;;;;3.53;2.83;;;2.90;99.90;;;;;;5013508;28;20389;-65
2023/03/11 02:34:46;;;;;;;4.43;3.13;;;2.90;99.90;;;;;;5006998;28;20755;-65
2023/03/11 02:37:15;;;;;;;4.18;2.90;;;2.90;99.90;;;;;;5013851;28;20881;-65
2023/03/11 02:39:52;;;;;;;4.72;2.78;;;2.90;99.90;;;;;;5008962;28;20029;-65
2023/03/11 02:42:31;;;;;;;5.45;3.55;;;2.90;99.90;;;;;;5004246;28;20030;-65
2023/03/11 02:45:09;;;;;;;5.47;3.35;;;3.00;99.90;;;;;;5009084;28;20041;-65
2023/03/11 02:47:37;;;;;;;4.70;3.22;;;3.00;99.90;;;;;;5013746;28;20040;-65
2023/03/11 02:50:08;;;;;;;4.72;3.53;;;3.00;99.90;;;;;;5011144;28;20954;-65
2023/03/11 02:52:34;;;;;;;4.78;3.70;;;2.90;99.90;;;;;;5011446;28;20030;-65
2023/03/11 02:55:00;;;;;;;5.57;3.25;;;2.90;99.90;;;;;;5012155;28;20017;-65
2023/03/11 02:57:26;;;;;;;4.45;3.33;;;2.90;99.90;;;;;;5012813;28;20102;-65
2023/03/11 02:59:52;;;;;;;4.82;3.30;;;2.80;99.90;;;;;;5011676;28;20049;-65
2023/03/11 03:02:19;;;;;;;5.65;3.33;;;2.80;99.90;;;;;;5009719;28;20026;-65
2023/03/11 03:04:46;;;;;;;5.18;3.55;;;2.80;99.90;;;;;;5013156;28;20036;-65
2023/03/11 03:07:12;;;;;;;4.15;3.40;;;2.90;99.90;;;;;;5010912;28;20560;-65
2023/03/11 03:09:38;;;;;;;5.35;3.28;;;2.90;99.90;;;;;;5011645;28;20136;-66
2023/03/11 03:12:04;;;;;;;3.70;3.30;;;2.90;99.90;;;;;;5009807;28;20087;-65
2023/03/11 03:14:32;;;;;;;4.70;3.38;;;2.90;99.90;;;;;;5006510;28;20723;-65
2023/03/11 03:16:58;;;;;;;6.68;3.85;;;2.80;99.90;;;;;;5006796;28;20022;-65
2023/03/11 03:19:24;;;;;;;7.63;4.55;;;2.70;99.90;;;;;;5011201;28;20029;-65
2023/03/11 03:21:50;;;;;;;6.45;3.83;;;2.70;99.90;;;;;;5005505;28;20021;-65
2023/03/11 03:24:17;;;;;;;4.75;3.08;;;2.70;99.90;;;;;;5004226;28;20163;-65
2023/03/11 03:26:42;;;;;;;4.47;3.33;;;2.70;99.90;;;;;;5011270;28;20108;-65
2023/03/11 03:29:09;;;;;;;4.40;3.15;;;2.70;99.90;;;;;;5012415;28;20049;-65
2023/03/11 03:31:35;;;;;;;5.20;3.65;;;2.70;99.90;;;;;;5006376;28;20132;-65
2023/03/11 03:34:01;;;;;;;5.70;3.67;;;2.70;99.90;;;;;;5001832;28;20117;-65
2023/03/11 03:36:27;;;;;;;5.43;3.83;;;2.60;99.90;;;;;;5006092;28;20780;-65
2023/03/11 03:38:58;;;;;;;6.95;3.90;;;2.70;99.90;;;;;;5004627;28;20032;-65
2023/03/11 03:41:28;;;;;;;5.40;3.55;;;2.80;99.90;;;;;;5008696;28;20025;-65
2023/03/11 03:43:55;;;;;;;3.97;2.85;;;2.80;99.90;;;;;;5005090;28;20026;-65
2023/03/11 03:46:22;;;;;;;3.85;2.53;;;2.90;99.90;;;;;;5006335;28;20113;-65
2023/03/11 03:48:50;;;;;;;4.20;2.40;;;2.80;99.90;;;;;;5004127;28;20162;-65
2023/03/11 03:51:16;;;;;;;4.82;2.55;;;2.80;99.90;;;;;;5018687;28;20521;-65
2023/03/11 03:53:58;;;;;;;4.22;2.40;;;2.70;99.90;;;;;;5010055;28;20029;-65
2023/03/11 03:56:25;;;;;;;3.47;2.53;;;2.80;99.90;;;;;;5015548;28;20025;-65
2023/03/11 03:58:52;;;;;;;3.78;2.60;;;2.80;99.90;;;;;;5016258;28;20113;-65
2023/03/11 04:01:19;;;;;;;3.13;1.90;;;2.90;99.90;;;;;;5011994;28;20112;-65
2023/03/11 04:03:45;;;;;;;2.75;2.17;;;2.90;99.90;;;;;;5013922;28;20140;-65
2023/03/11 04:06:19;;;;;;;2.45;1.90;;;2.80;99.90;;;;;;5008992;28;20525;-65
2023/03/11 04:08:50;;;;;;;2.42;2.20;;;2.80;99.90;;;;;;5011118;28;20868;-65
2023/03/11 04:11:17;;;;;;;2.55;2.00;;;2.70;99.90;;;;;;5013920;28;20110;-65
2023/03/11 04:13:43;;;;;;;3.28;1.92;;;2.70;99.90;;;;;;5013001;28;20026;-65
2023/03/11 04:16:14;;;;;;;3.08;1.75;;;2.80;99.90;;;;;;5007779;28;20037;-66
2023/03/11 04:18:40;;;;;;;3.53;1.80;;;2.80;99.90;;;;;;5014476;28;20029;-66
2023/03/11 04:21:07;;;;;;;2.25;1.70;;;2.90;99.90;;;;;;5010510;28;20029;-65
2023/03/11 04:23:33;;;;;;;2.85;2.03;;;2.90;99.90;;;;;;5009725;28;20827;-65
2023/03/11 04:26:00;;;;;;;2.25;1.83;;;2.90;99.90;;;;;;5013970;28;20030;-66
2023/03/11 04:28:26;;;;;;;2.28;2.08;;;3.00;99.90;;;;;;5012436;28;20029;-64
2023/03/11 04:30:52;;;;;;;2.67;1.70;;;2.90;99.90;;;;;;5012167;28;20017;-64
2023/03/11 04:33:19;;;;;;;2.45;1.75;;;2.90;99.90;;;;;;5004651;28;20058;-64
2023/03/11 04:35:45;;;;;;;2.45;1.70;;;2.90;99.90;;;;;;5012024;28;20083;-64
2023/03/11 04:38:12;;;;;;;2.22;1.50;;;2.90;99.90;;;;;;5010705;28;20036;-64
2023/03/11 04:40:38;;;;;;;3.03;1.55;;;2.90;99.90;;;;;;5005981;28;20026;-64
2023/03/11 04:43:05;;;;;;;2.45;1.90;;;3.00;99.90;;;;;;5008737;28;20030;-65
2023/03/11 04:45:31;;;;;;;2.05;1.70;;;3.00;99.90;;;;;;5005993;28;20806;-64
2023/03/11 04:47:59;;;;;;;2.08;1.83;;;2.90;99.90;;;;;;5008155;28;20042;-64
2023/03/11 04:50:25;;;;;;;3.28;1.60;;;2.90;99.90;;;;;;5008605;28;20057;-64
2023/03/11 04:52:51;;;;;;;2.03;1.70;;;2.90;99.90;;;;;;5004625;28;20038;-64
2023/03/11 04:55:17;;;;;;;2.20;1.70;;;2.90;99.90;;;;;;5007025;28;20111;-64
2023/03/11 04:57:43;;;;;;;2.75;1.67;;;2.90;99.90;;;;;;5004176;28;20116;-64
2023/03/11 05:00:14;;;;;;;6.20;2.10;;;2.90;99.90;;;;;;5003529;28;20057;-64
2023/03/11 05:02:42;;;;;;;2.40;1.45;;;2.90;99.90;;;;;;5011791;28;20644;-64
2023/03/11 05:05:09;;;;;;;2.20;1.42;;;2.80;99.90;;;;;;5009395;28;20115;-64
2023/03/11 05:07:36;;;;;;;2.17;1.80;;;2.90;99.90;;;;;;5003253;28;20038;-64
2023/03/11 05:10:03;;;;;;;2.22;1.80;;;2.90;99.90;;;;;;5003989;28;20152;-64
2023/03/11 05:12:31;;;;;;;2.47;1.98;;;2.90;99.90;;;;;;5004195;28;20878;-64
2023/03/11 05:14:57;;;;;;;2.63;1.92;;;2.90;99.90;;;;;;5007457;28;20040;-64
2023/03/11 05:17:24;;;;;;;4.85;2.13;;;3.00;99.90;;;;;;5007134;28;20197;-64
2023/03/11 05:19:52;;;;;;;2.85;2.35;;;3.00;99.90;;;;;;5009679;28;20477;-64
2023/03/11 05:22:23;;;;;;;4.43;2.47;;;3.00;99.90;;;;;;5004157;28;20038;-64
2023/03/11 05:24:49;;;;;;;2.70;2.40;;;3.00;99.90;;;;;;5005279;28;20033;-65
2023/03/11 05:27:16;;;;;;;3.55;2.60;;;2.90;99.90;;;;;;5001004;28;20030;-64
2023/03/11 05:29:45;;;;;;;4.05;2.83;;;2.90;99.90;;;;;;5010844;28;20884;-64
2023/03/11 05:32:12;;;;;;;3.55;3.08;;;2.90;99.90;;;;;;5000642;28;20157;-64
2023/03/11 05:34:40;;;;;;;3.90;2.83;;;2.90;99.90;;;;;;5000958;28;20088;-64
2023/03/11 05:37:06;;;;;;;5.00;3.70;;;2.90;99.90;;;;;;5004106;28;20030;-64
2023/03/11 05:39:33;;;;;;;7.43;3.70;;;2.80;99.90;;;;;;5012124;28;20728;-65
2023/03/11 05:41:59;;;;;;;7.25;3.67;;;2.80;99.90;;;;;;5005310;28;20036;-64
2023/03/11 05:44:26;;;;;;;10.65;4.18;;;2.90;99.90;;;;;;5003387;28;20029;-64
2023/03/11 05:46:55;;;;;;;6.53;3.75;;;2.90;99.90;;;;;;5007624;28;20036;-64
2023/03/11 05:49:21;;;;;;;5.15;3.65;;;2.90;99.90;;;;;;5008108;28;20187;-64
2023/03/11 05:51:55;;;;;;;5.95;4.15;;;2.90;99.90;;;;;;5011371;28;20112;-64
2023/03/11 05:54:23;;;;;;;6.25;3.85;;;3.00;99.90;;;;;;5009700;28;20450;-64
2023/03/11 05:56:51;;;;;;;5.50;4.10;;;3.00;99.90;;;;;;4995262;28;20037;-64
2023/03/11 05:59:18;;;;;;;8.10;4.00;;;3.00;99.90;;;;;;5010738;28;20030;-64
2023/03/11 06:01:47;;;;;;;5.95;4.00;;;3.10;99.90;;;;;;5006486;28;20076;-64
2023/03/11 06:04:13;;;;;;;7.65;4.18;;;3.00;99.90;;;;;;5002663;28;20034;-64
2023/03/11 06:06:40;;;;;;;6.35;4.13;;;3.00;99.90;;;;;;5009822;28;20021;-64
2023/03/11 06:09:10;;;;;;;7.75;5.00;;;3.10;99.90;;;;;;5013217;28;20099;-64
2023/03/11 06:11:35;;;;;;;5.65;3.75;;;3.10;99.90;;;;;;5007026;28;20040;-64
2023/03/11 06:14:01;;;;;;;6.07;4.40;;;3.10;99.90;;;;;;5010059;28;20030;-64
2023/03/11 06:16:28;;;;;;;7.53;4.70;;;3.10;99.90;;;;;;5012920;28;20132;-64
2023/03/11 06:18:59;;;;;;;7.82;4.50;;;3.20;99.90;;;;;;5012703;28;20540;-64
2023/03/11 06:21:27;;;;;;;7.47;4.55;;;3.20;99.90;;;;;;5011741;28;20034;-65
2023/03/11 06:23:53;;;;;;;5.57;4.05;;;3.20;99.90;;;;;;5013543;28;20036;-64
2023/03/11 06:26:21;;;;;;;7.22;4.60;;;3.30;99.90;;;;;;5022665;28;20021;-64
2023/03/11 06:28:49;;;;;;;8.50;3.92;;;3.30;99.90;;;;;;5022503;28;20029;-64
2023/03/11 06:31:18;;;;;;;7.43;4.47;;;3.40;99.90;;;;;;5010359;28;20971;-64
2023/03/11 06:33:45;;;;;;;11.20;4.80;;;3.40;99.90;;;;;;5014393;28;20033;-64
2023/03/11 06:36:13;;;;;;;7.43;4.53;;;3.30;99.90;;;;;;5008118;28;20041;-64
2023/03/11 06:38:39;;;;;;;7.50;5.13;;;3.30;99.90;;;;;;5009284;28;20025;-64
2023/03/11 06:41:06;;;;;;;9.20;4.80;;;3.30;99.90;;;;;;5005015;28;20076;-64
2023/03/11 06:43:34;;;;;;;7.72;4.93;;;3.40;99.90;;;;;;5008650;28;20029;-65
2023/03/11 06:46:08;;;;;;;7.97;5.32;;;3.40;99.90;;;;;;5011899;28;21046;-64
2023/03/11 06:48:34;;;;;;;9.88;4.80;;;3.30;99.90;;;;;;5013420;28;20057;-64
2023/03/11 06:51:01;;;;;;;9.63;5.30;;;3.30;99.90;;;;;;5011976;28;20564;-64
2023/03/11 06:53:29;;;;;;;8.95;4.65;;;3.30;99.90;;;;;;5007054;28;20501;-65
2023/03/11 06:56:04;;;;;;;7.82;4.80;;;3.30;99.90;;;;;;5012240;28;20436;-65
2023/03/11 06:58:34;;;;;;;9.32;5.35;;;3.40;99.90;;;;;;5014055;28;20138;-65
2023/03/11 07:01:10;;;;;;;7.45;4.97;;;3.40;99.90;;;;;;5010335;28;20124;-65
2023/03/11 07:03:37;;;;;;;10.77;5.40;;;3.40;99.90;;;;;;5023672;28;20120;-64
2023/03/11 07:06:03;;;;;;;9.98;6.57;;;3.50;99.90;;;;;;5008004;28;20101;-65
2023/03/11 07:08:30;;;;;;;13.57;5.57;;;3.50;99.90;;;;;;5013576;28;20026;-64
2023/03/11 07:11:04;;;;;;;11.82;6.18;;;3.60;99.90;;;;;;5003326;28;20084;-66
2023/03/11 07:13:30;;;;;;;12.00;5.80;;;3.60;99.90;;;;;;5012370;28;20030;-65
2023/03/11 07:16:01;;;;;;;9.27;5.30;;;3.60;99.90;;;;;;5011323;28;20037;-65
2023/03/11 07:18:27;;;;;;;10.15;5.50;;;3.50;99.90;;;;;;5012509;28;20029;-65
2023/03/11 07:20:53;;;;;;;7.05;4.95;;;3.60;99.90;;;;;;5010730;28;20649;-65
2023/03/11 07:23:19;;;;;;;7.03;5.20;;;3.70;99.90;;;;;;5010105;28;20120;-65
2023/03/11 07:25:46;;;;;;;8.43;5.28;;;3.80;99.90;;;;;;5016336;28;20032;-65
2023/03/11 07:28:12;;;;;;;8.20;5.18;;;3.90;99.90;;;;;;5008499;28;20108;-65
2023/03/11 07:30:38;;;;;;;9.43;5.38;;;3.90;99.90;;;;;;5008766;28;20046;-65
2023/03/11 07:33:04;;;;;;;9.18;4.90;;;4.00;99.90;;;;;;5009001;28;20056;-65
2023/03/11 07:35:30;;;;;;;8.68;5.72;;;4.10;99.90;;;;;;5013897;28;20042;-64
2023/03/11 07:37:56;;;;;;;8.77;5.32;;;4.10;99.90;;;;;;5009938;28;20049;-68
2023/03/11 07:40:21;;;;;;;7.93;5.35;;;4.20;99.90;;;;;;5014309;28;20037;-65
2023/03/11 07:42:47;;;;;;;8.27;4.75;;;4.40;99.90;;;;;;5013158;28;20145;-65
2023/03/11 07:45:13;;;;;;;8.63;5.32;;;4.40;99.90;;;;;;5010381;28;20371;-66
2023/03/11 07:47:39;;;;;;;6.15;4.50;;;4.40;99.90;;;;;;5010934;28;20044;-64
2023/03/11 07:50:05;;;;;;;10.65;5.13;;;4.40;99.90;;;;;;5012171;28;20555;-65
2023/03/11 07:52:31;;;;;;;13.60;7.15;;;4.30;99.90;;;;;;5015065;28;20707;-65
2023/03/11 07:54:58;;;;;;;8.70;5.57;;;4.30;99.90;;;;;;5011880;28;20116;-65
2023/03/11 07:57:23;;;;;;;8.27;5.30;;;4.40;99.90;;;;;;5014362;28;20033;-65
2023/03/11 07:59:49;;;;;;;6.93;4.72;;;4.50;99.90;;;;;;5014133;28;20033;-65
2023/03/11 08:02:15;;;;;;;6.95;5.28;;;4.70;99.90;;;;;;5008735;28;20025;-64
2023/03/11 08:04:41;;;;;;;6.25;4.88;;;4.80;99.90;;;;;;5006350;28;20045;-65
2023/03/11 08:07:07;;;;;;;7.00;5.03;;;4.70;99.90;;;;;;5011410;28;20068;-64
2023/03/11 08:09:34;;;;;;;11.90;5.80;;;4.70;99.90;;;;;;5007058;28;20087;-65
2023/03/11 08:12:00;;;;;;;11.32;6.18;;;4.80;99.90;;;;;;5004691;28;20037;-65
2023/03/11 08:14:26;;;;;;;7.72;4.70;;;4.80;99.90;;;;;;5008099;28;20034;-65
2023/03/11 08:16:52;;;;;;;7.95;4.75;;;4.80;99.90;;;;;;5012439;28;20832;-65
2023/03/11 08:19:18;;;;;;;6.25;4.50;;;4.80;99.90;;;;;;5007895;28;20091;-65
2023/03/11 08:21:43;;;;;;;7.97;4.60;;;4.90;99.90;;;;;;5012565;28;20749;-64
2023/03/11 08:24:12;;;;;;;8.90;5.65;;;5.00;99.90;;;;;;5008839;28;20882;-65
2023/03/11 08:26:38;;;;;;;14.52;7.47;;;5.20;99.90;;;;;;5008169;28;20116;-65
2023/03/11 08:29:04;;;;;;;9.07;5.18;;;5.40;99.90;;;;;;5010942;28;20041;-64
2023/03/11 08:31:31;;;;;;;7.40;4.88;;;5.70;99.90;;;;;;5014974;28;20026;-65
2023/03/11 08:34:00;;;;;;;7.85;4.95;;;5.80;99.90;;;;;;5012393;28;20168;-65
2023/03/11 08:36:26;;;;;;;8.63;5.32;;;5.80;99.90;;;;;;5013749;28;20119;-65
2023/03/11 08:38:52;;;;;;;6.90;5.07;;;5.70;99.90;;;;;;5012460;28;20066;-65
2023/03/11 08:41:18;;;;;;;6.13;4.15;;;5.80;99.80;;;;;;5008975;28;20049;-65
2023/03/11 08:43:44;;;;;;;8.75;5.93;;;5.80;99.90;;;;;;5010273;28;20038;-65
2023/03/11 08:46:18;;;;;;;8.23;5.15;;;5.90;99.90;;;;;;5016284;28;20036;-64
2023/03/11 08:48:43;;;;;;;7.60;4.63;;;5.90;98.60;;;;;;5008231;28;21045;-65
2023/03/11 08:51:11;;;;;;;11.10;5.60;;;5.90;99.70;;;;;;5007101;28;20029;-65
2023/03/11 08:53:38;;;;;;;7.75;5.82;;;5.90;99.40;;;;;;5007783;28;20044;-66
2023/03/11 08:56:04;;;;;;;9.00;6.38;;;5.90;99.40;;;;;;5009691;28;20848;-65
2023/03/11 08:58:30;;;;;;;9.18;5.55;;;5.90;99.30;;;;;;5010955;28;20034;-64
2023/03/11 09:00:56;;;;;;;10.02;5.82;;;5.80;99.20;;;;;;5014719;28;20082;-64
2023/03/11 09:03:22;;;;;;;9.05;5.97;;;5.80;99.70;;;;;;5012173;28;20741;-65
2023/03/11 09:05:48;;;;;;;9.70;6.03;;;5.80;99.90;;;;;;5007972;28;20688;-65
2023/03/11 09:08:14;;;;;;;8.95;5.78;;;5.90;99.50;;;;;;5020840;28;20037;-65
2023/03/11 09:10:40;;;;;;;6.20;4.40;;;6.00;99.00;;;;;;5026180;28;20033;-65
2023/03/11 09:13:05;;;;;;;6.93;5.07;;;6.00;99.20;;;;;;5021682;28;20036;-65
2023/03/11 09:15:31;;;;;;;6.22;4.70;;;6.10;99.10;;;;;;5027798;28;20032;-65
2023/03/11 09:17:58;;;;;;;5.55;4.35;;;6.00;98.60;;;;;;5021526;28;20029;-65
2023/03/11 09:20:24;;;;;;;6.57;5.32;;;5.80;99.00;;;;;;5023213;28;20063;-65
2023/03/11 09:22:50;;;;;;;8.45;5.50;;;5.70;99.30;;;;;;5025062;28;20034;-64
2023/03/11 09:25:16;;;;;;;9.15;5.20;;;5.70;99.70;;;;;;5021134;28;20041;-65
2023/03/11 09:27:42;;;;;;;7.03;5.20;;;5.80;99.70;;;;;;5026054;28;20029;-64
2023/03/11 09:30:09;;;;;;;10.40;5.63;;;5.90;99.90;;;;;;5027842;28;20033;-65
2023/03/11 09:32:34;;;;;;;10.65;6.93;;;6.10;99.50;;;;;;5029822;28;20144;-64
2023/03/11 09:35:00;;;;;;;10.88;6.43;;;6.20;98.30;;;;;;5025795;28;20893;-65
2023/03/11 09:37:28;;;;;;;9.52;6.38;;;6.20;99.10;;;;;;5023110;28;20101;-65
2023/03/11 09:39:54;;;;;;;8.38;5.88;;;6.10;99.30;;;;;;5024822;28;20033;-65
2023/03/11 09:42:36;;;;;;;8.90;6.32;;;6.00;99.20;;;;;;5027477;28;20040;-65
2023/03/11 09:45:04;;;;;;;7.85;5.75;;;6.00;99.00;;;;;;5022575;28;20076;-64
2023/03/11 09:47:50;;;;;;;9.00;6.22;;;5.90;99.30;;;;;;5022217;28;20059;-65
2023/03/11 09:50:34;;;;;;;9.85;5.93;;;5.90;99.00;;;;;;5027621;28;20068;-64
2023/03/11 09:53:16;;;;;;;11.70;6.90;;;5.80;99.50;;;;;;5023277;28;20085;-64
2023/03/11 09:55:57;;;;;;;14.20;9.80;;;5.80;99.80;;;;;;5025744;28;20477;-64
2023/03/11 09:58:32;;;;;;;10.75;6.45;;;5.80;99.70;;;;;;5024663;28;20488;-64
2023/03/11 10:00:59;;;;;;;9.40;5.97;;;5.70;99.30;;;;;;5026160;28;20033;-64
2023/03/11 10:03:32;;;;;;;8.00;5.35;;;5.50;99.50;;;;;;5026198;28;20621;-64
2023/03/11 10:06:06;;;;;;;8.40;5.45;;;5.40;99.10;;;;;;5026976;28;20461;-64
2023/03/11 10:08:41;;;;;;;9.27;6.40;;;5.30;99.80;;;;;;5022896;28;20052;-64
2023/03/11 10:11:26;;;;;;;9.20;6.03;;;5.20;99.90;;;;;;5023707;28;20029;-65
2023/03/11 10:14:18;;;;;;;10.40;6.13;;;5.10;99.90;;;;;;5024141;28;20068;-64
2023/03/11 10:16:57;;;;;;;8.90;6.20;;;4.80;99.90;;;;;;5010229;28;20065;-64
2023/03/11 10:20:12;;;;;;;10.20;6.50;;;4.80;99.90;;;;;;5025119;28;20032;-64
2023/03/11 10:23:12;;;;;;;10.25;6.03;;;4.80;99.90;;;;;;5012253;28;20033;-65
2023/03/11 10:26:07;;;;;;;8.00;6.07;;;4.80;99.90;;;;;;4993138;28;20060;-64
2023/03/11 10:28:38;;;;;;;8.05;5.55;;;4.80;99.90;;;;;;5024575;28;20049;-65
2023/03/11 10:31:24;;;;;;;9.23;5.45;;;4.80;99.90;;;;;;5030075;28;20029;-65
2023/03/11 10:34:00;;;;;;;;;;;4.80;99.90;;;;;;5035573;28;20029;-64
2023/03/11 10:36:53;;;;;;;8.10;5.47;;;4.80;99.90;;;;;;5030747;28;19916;-64
2023/03/11 10:39:20;;;;;;;8.95;5.40;;;4.70;99.90;;;;;;5036839;28;20068;-65
2023/03/11 10:42:04;;;;;;;9.70;6.15;;;4.70;99.90;;;;;;5029767;28;20490;-65
2023/03/11 10:44:38;;;;;;;8.52;5.65;;;4.80;99.90;;;;;;5032693;28;20033;-65
2023/03/11 10:47:06;;;;;;;8.65;6.00;;;4.90;99.90;;;;;;5031627;28;20040;-65
2023/03/11 10:49:32;;;;;;;8.18;5.65;;;4.90;99.90;;;;;;5026215;28;20029;-65
2023/03/11 10:51:58;;;;;;;9.20;5.95;;;4.90;99.90;;;;;;5026602;28;20021;-64
2023/03/11 10:54:45;;;;;;;9.45;6.50;;;5.00;99.90;;;;;;5023780;28;20025;-65
2023/03/11 10:57:25;;;;;;;9.52;7.50;;;5.10;99.90;;;;;;5026711;28;20111;-65
2023/03/11 10:59:55;;;;;;;9.07;6.15;;;5.60;99.90;;;;;;5029079;28;20022;-65
2023/03/11 11:02:29;;;;;;;9.27;6.65;;;6.30;99.90;;;;;;5028997;28;20052;-65
2023/03/11 11:05:13;;;;;;;9.07;6.18;;;6.80;98.90;;;;;;5022380;28;20140;-65
2023/03/11 11:07:39;;;;;;;10.70;6.28;;;7.30;98.10;;;;;;5030430;28;20033;-65
2023/03/11 11:10:21;;;;;;;8.07;5.75;;;7.50;96.70;;;;;;5030159;28;20032;-65
2023/03/11 11:12:55;;;;;;;8.73;6.30;;;7.70;96.70;;;;;;5035572;28;20033;-65
2023/03/11 11:15:25;;;;;;;8.93;5.57;;;7.60;93.60;;;;;;5031652;28;20033;-65
2023/03/11 11:17:56;;;;;;;8.15;5.82;;;7.40;94.10;;;;;;5035721;28;20021;-65
2023/03/11 11:20:24;;;;;;;6.88;5.45;;;7.20;94.30;;;;;;5034144;28;20033;-65
2023/03/11 11:22:56;;;;;;;8.10;5.43;;;7.10;93.70;;;;;;5032249;28;20102;-65
2023/03/11 11:25:40;;;;;;;9.20;5.32;;;7.00;95.20;;;;;;5026980;28;20030;-65
2023/03/11 11:28:18;;;;;;;9.23;5.82;;;6.90;95.60;;;;;;5035438;28;20072;-65
2023/03/11 11:30:55;;;;;;;9.80;6.05;;;6.80;95.60;;;;;;5028875;28;20052;-65
2023/03/11 11:33:31;;;;;;;8.65;6.07;;;6.80;94.80;;;;;;5031908;28;20036;-65
2023/03/11 11:36:03;;;;;;;7.00;5.40;;;6.70;95.40;;;;;;5027434;28;20040;-65
2023/03/11 11:38:30;;;;;;;7.53;5.15;;;6.50;94.30;;;;;;5034072;28;20033;-65
2023/03/11 11:41:01;;;;;;;10.25;5.38;;;6.40;95.10;;;;;;5031774;28;20374;-65
2023/03/11 11:43:48;;;;;;;7.57;5.90;;;6.20;95.60;;;;;;5031956;28;20025;-65
2023/03/11 11:46:42;;;;;;;8.23;5.82;;;6.00;96.60;;;;;;5033479;28;20590;-65
2023/03/11 11:49:13;;;;;;;7.53;5.63;;;5.80;97.00;;;;;;5031995;28;20452;-65
2023/03/11 11:51:57;;;;;;;8.23;6.07;;;5.80;97.70;;;;;;5037264;28;20128;-65
2023/03/11 11:54:52;;;;;;;7.47;5.43;;;5.80;97.40;;;;;;5029987;28;20033;-65
2023/03/11 11:57:20;;;;;;;8.18;6.00;;;5.80;97.20;;;;;;5033574;28;20029;-65
2023/03/11 11:59:47;;;;;;;8.60;5.95;;;5.90;98.00;;;;;;5026613;28;20838;-64
2023/03/11 12:02:17;;;;;;;10.50;5.90;;;6.00;97.20;;;;;;5028468;28;20024;-65
2023/03/11 12:05:13;;;;;;;7.85;5.70;;;5.90;97.70;;;;;;5031741;28;20044;-65
2023/03/11 12:08:08;;;;;;;7.72;5.85;;;5.80;98.80;;;;;;5034075;28;20033;-65
2023/03/11 12:10:43;;;;;;;8.40;5.63;;;5.80;99.10;;;;;;5024281;28;20041;-65
2023/03/11 12:13:24;;;;;;;9.57;5.75;;;5.90;99.20;;;;;;5029311;28;20047;-64
2023/03/11 12:16:15;;;;;;;9.75;6.25;;;5.90;99.90;;;;;;5035979;28;20084;-65
2023/03/11 12:19:02;;;;;;;9.95;6.40;;;5.90;99.20;;;;;;5033921;28;20041;-65
2023/03/11 12:21:28;;;;;;;9.80;5.30;;;6.00;99.40;;;;;;5034993;28;20040;-65
2023/03/11 12:24:12;;;;;;;11.88;6.78;;;6.10;98.30;;;;;;5026646;28;20035;-65
2023/03/11 12:26:41;;;;;;;10.20;6.30;;;6.20;98.10;;;;;;5028881;28;20037;-65
2023/03/11 12:29:29;;;;;;;8.63;6.07;;;6.20;98.00;;;;;;5032611;28;20028;-64
2023/03/11 12:31:58;;;;;;;9.48;6.18;;;6.30;97.90;;;;;;5024104;28;20060;-65
2023/03/11 12:34:24;;;;;;;8.70;5.97;;;6.40;98.00;;;;;;5033436;28;20733;-65
2023/03/11 12:36:51;;;;;;;10.18;5.78;;;6.50;98.40;;;;;;5032148;28;20037;-65
2023/03/11 12:39:30;;;;;;;10.05;6.10;;;6.60;97.80;;;;;;5027291;28;20041;-65
2023/03/11 12:42:20;;;;;;;10.60;6.20;;;6.60;98.00;;;;;;5029705;28;20920;-65
2023/03/11 12:44:46;;;;;;;9.63;5.45;;;6.80;97.90;;;;;;5029507;28;20056;-65
2023/03/11 12:47:12;;;;;;;9.32;5.82;;;6.80;96.80;;;;;;5032405;28;20048;-65
2023/03/11 12:49:43;;;;;;;8.73;5.65;;;6.80;96.60;;;;;;5025968;28;20037;-65
2023/03/11 12:52:12;;;;;;;9.38;5.63;;;6.80;97.80;;;;;;5028736;28;20052;-65
2023/03/11 12:54:43;;;;;;;8.70;5.53;;;6.80;96.80;;;;;;5029172;28;21270;-65
2023/03/11 12:57:18;;;;;;;7.97;5.43;;;6.90;96.50;;;;;;5032684;28;20031;-64
2023/03/11 13:00:16;;;;;;;10.85;6.10;;;6.90;94.90;;;;;;5027538;28;20060;-65
2023/03/11 13:03:21;;;;;;;14.57;6.28;;;7.00;95.40;;;;;;5027767;28;20072;-65
2023/03/11 13:06:14;;;;;;;9.05;5.40;;;7.10;95.80;;;;;;5028026;28;20033;-65
2023/03/11 13:08:50;;;;;;;8.25;5.05;;;7.20;94.40;;;;;;5034991;28;20082;-65
2023/03/11 13:11:35;;;;;;;7.28;5.13;;;7.10;93.80;;;;;;5028961;28;20055;-65